Time;durP1;ratioP1;P1;durP2;ratioP2;P2;SDS_P1;SDS_P2;PMS_P1;PMS_P2;Temp;Humidity;BMP_temperature;BMP_pressure;BME280_temperature;BME280_humidity;BME280_pressure;Samples;Min_cycle;Max_cycle;Signal;HPM_P1;HPM_P2
2022/11/04 00:00:40;;;;;;;;;12.00;5.75;;;;;;;;5035923;28;51033;-58
2022/11/04 00:03:25;;;;;;;;;6.00;5.50;;;;;;;;5038316;28;51145;-57
2022/11/04 00:06:09;;;;;;;;;7.75;5.00;;;;;;;;5039908;28;51275;-58
2022/11/04 00:08:55;;;;;;;;;7.00;4.75;;;;;;;;5039969;28;51238;-54
2022/11/04 00:14:42;;;;;;;;;14.50;6.75;;;;;;;;5040606;28;51061;-53
2022/11/04 00:17:27;;;;;;;;;8.50;7.25;;;;;;;;5037913;28;51076;-53
2022/11/04 00:29:36;;;;;;;;;10.00;6.00;;;;;;;;5039741;28;51479;-54
2022/11/04 00:35:24;;;;;;;;;11.00;7.25;;;;;;;;5038840;28;51122;-56
2022/11/04 00:38:08;;;;;;;;;5.75;4.00;;;;;;;;5036907;28;51137;-56
2022/11/04 00:40:52;;;;;;;;;8.50;6.50;;;;;;;;5037938;28;51260;-57
2022/11/04 00:43:37;;;;;;;;;10.25;5.00;;;;;;;;5035983;28;51187;-55
2022/11/04 00:46:21;;;;;;;;;4.25;1.50;;;;;;;;5040489;28;51466;-56
2022/11/04 00:49:05;;;;;;;;;10.50;7.00;;;;;;;;5035620;28;51070;-55
2022/11/04 00:51:50;;;;;;;;;12.00;7.75;;;;;;;;5037695;28;51345;-56
2022/11/04 00:54:34;;;;;;;;;8.50;5.50;;;;;;;;5039952;28;51086;-53
2022/11/04 00:57:19;;;;;;;;;7.75;6.50;;;;;;;;5037368;28;51191;-56
2022/11/04 01:00:04;;;;;;;;;14.00;6.75;;;;;;;;5035392;28;51105;-56
2022/11/04 01:02:48;;;;;;;;;8.50;6.50;;;;;;;;5038076;28;51331;-56
2022/11/04 01:05:32;;;;;;;;;12.00;6.25;;;;;;;;5036748;28;51975;-58
2022/11/04 01:08:17;;;;;;;;;8.00;7.00;;;;;;;;5040176;28;51141;-56
2022/11/04 01:11:02;;;;;;;;;8.25;4.50;;;;;;;;5037298;28;51521;-52
2022/11/04 01:13:49;;;;;;;;;9.50;6.50;;;;;;;;5038488;28;51251;-53
2022/11/04 01:16:33;;;;;;;;;9.00;6.75;;;;;;;;5032405;28;51364;-57
2022/11/04 01:19:18;;;;;;;;;7.00;6.50;;;;;;;;5038266;28;51154;-57
2022/11/04 01:22:02;;;;;;;;;8.75;7.00;;;;;;;;5038241;28;51411;-56
2022/11/04 01:24:46;;;;;;;;;8.25;4.50;;;;;;;;5038638;28;51086;-53
2022/11/04 01:27:31;;;;;;;;;6.50;6.00;;;;;;;;5038268;28;51151;-56
2022/11/04 01:30:15;;;;;;;;;5.50;5.50;;;;;;;;5041207;28;51174;-55
2022/11/04 01:33:00;;;;;;;;;7.00;5.75;;;;;;;;5037776;28;51106;-54
2022/11/04 01:35:44;;;;;;;;;8.00;6.00;;;;;;;;5031381;28;51339;-53
2022/11/04 01:38:28;;;;;;;;;9.25;6.00;;;;;;;;5039474;28;51030;-58
2022/11/04 01:41:20;;;;;;;;;11.00;6.00;;;;;;;;5036932;28;51324;-57
2022/11/04 01:44:23;;;;;;;;;9.50;5.25;;;;;;;;5032462;28;51086;-57
2022/11/04 01:47:14;;;;;;;;;9.75;5.25;;;;;;;;5033612;28;51159;-53
2022/11/04 01:50:03;;;;;;;;;5.75;5.00;;;;;;;;5033341;28;51273;-52
2022/11/04 01:52:59;;;;;;;;;8.00;5.50;;;;;;;;5035689;28;51381;-52
2022/11/04 01:55:48;;;;;;;;;6.25;5.00;;;;;;;;5034653;28;51424;-57
2022/11/04 01:58:34;;;;;;;;;7.50;4.50;;;;;;;;5036529;28;51070;-53
2022/11/04 02:01:18;;;;;;;;;7.75;7.00;;;;;;;;5034729;28;51372;-54
2022/11/04 02:07:07;;;;;;;;;9.25;5.00;;;;;;;;5037860;28;51195;-58
2022/11/04 02:09:52;;;;;;;;;7.25;6.00;;;;;;;;5031622;28;51103;-53
2022/11/04 02:12:51;;;;;;;;;7.00;5.00;;;;;;;;5038092;28;51385;-55
2022/11/04 02:15:44;;;;;;;;;11.75;6.25;;;;;;;;5026665;28;51094;-56
2022/11/04 02:18:36;;;;;;;;;7.25;5.75;;;;;;;;5030012;28;51185;-56
2022/11/04 02:21:21;;;;;;;;;7.50;5.25;;;;;;;;5036105;28;51186;-55
2022/11/04 02:24:24;;;;;;;;;6.25;5.25;;;;;;;;5035175;28;51122;-54
2022/11/04 02:27:17;;;;;;;;;3.25;2.25;;;;;;;;5032942;28;51347;-57
2022/11/04 02:30:04;;;;;;;;;9.00;5.00;;;;;;;;5036501;28;51087;-53
2022/11/04 02:33:07;;;;;;;;;9.50;5.00;;;;;;;;5034979;28;51122;-56
2022/11/04 02:36:11;;;;;;;;;9.75;6.50;;;;;;;;5035666;28;51153;-57
2022/11/04 02:39:18;;;;;;;;;8.50;5.00;;;;;;;;5015039;28;51544;-54
2022/11/04 02:42:19;;;;;;;;;7.25;4.25;;;;;;;;5055600;27;51211;-53
2022/11/04 02:45:12;;;;;;;;;8.50;7.75;;;;;;;;5034637;28;51104;-55
2022/11/04 02:48:00;;;;;;;;;9.75;7.25;;;;;;;;5037572;28;51181;-55
2022/11/04 02:51:00;;;;;;;;;7.75;5.00;;;;;;;;5029708;28;51322;-58
2022/11/04 02:54:05;;;;;;;;;9.00;7.50;;;;;;;;5036506;28;51084;-57
2022/11/04 02:56:50;;;;;;;;;4.50;2.75;;;;;;;;5034641;28;51064;-52
2022/11/04 02:59:37;;;;;;;;;8.75;5.00;;;;;;;;5034299;28;51089;-53
2022/11/04 03:02:32;;;;;;;;;4.25;4.00;;;;;;;;5037226;28;51045;-56
2022/11/04 03:05:18;;;;;;;;;4.00;3.25;;;;;;;;5035127;28;51236;-56
2022/11/04 03:08:05;;;;;;;;;8.25;5.75;;;;;;;;5036660;28;51113;-56
2022/11/04 03:10:52;;;;;;;;;7.75;5.75;;;;;;;;5034816;28;51341;-52
2022/11/04 03:13:56;;;;;;;;;9.75;6.50;;;;;;;;5027751;28;51137;-53
2022/11/04 03:16:47;;;;;;;;;8.50;6.00;;;;;;;;5035678;28;51248;-56
2022/11/04 03:19:43;;;;;;;;;6.25;6.25;;;;;;;;5028690;28;51110;-55
2022/11/04 03:22:29;;;;;;;;;9.00;7.00;;;;;;;;5035853;28;51023;-56
2022/11/04 03:25:14;;;;;;;;;9.50;7.00;;;;;;;;5031260;28;51082;-56
2022/11/04 03:28:05;;;;;;;;;9.50;4.50;;;;;;;;5034860;28;51172;-52
2022/11/04 03:30:52;;;;;;;;;9.75;5.75;;;;;;;;5031611;28;51027;-58
2022/11/04 03:33:36;;;;;;;;;7.25;4.50;;;;;;;;5031114;28;51029;-59
2022/11/04 03:36:21;;;;;;;;;8.25;5.75;;;;;;;;5036436;28;51294;-57
2022/11/04 03:39:05;;;;;;;;;6.75;5.00;;;;;;;;5032411;28;51208;-49
2022/11/04 03:41:52;;;;;;;;;3.00;0.00;;;;;;;;5028674;28;51224;-56
2022/11/04 03:44:37;;;;;;;;;5.75;5.25;;;;;;;;5031603;28;51216;-58
2022/11/04 03:47:23;;;;;;;;;5.25;4.25;;;;;;;;5036178;28;52442;-55
2022/11/04 03:50:14;;;;;;;;;7.25;4.75;;;;;;;;5030012;28;51197;-53
2022/11/04 03:52:59;;;;;;;;;8.25;4.75;;;;;;;;5030680;28;51330;-53
2022/11/04 03:56:02;;;;;;;;;8.50;5.00;;;;;;;;5033459;28;51553;-58
2022/11/04 03:58:58;;;;;;;;;9.00;5.50;;;;;;;;5035262;28;51323;-53
2022/11/04 04:01:53;;;;;;;;;10.00;5.75;;;;;;;;5036726;28;51039;-57
2022/11/04 04:04:48;;;;;;;;;11.25;6.50;;;;;;;;5031524;28;51160;-54
2022/11/04 04:07:36;;;;;;;;;7.00;6.00;;;;;;;;5032006;28;51204;-54
2022/11/04 04:10:38;;;;;;;;;7.00;5.75;;;;;;;;5035176;28;51480;-55
2022/11/04 04:13:28;;;;;;;;;7.25;6.75;;;;;;;;5030767;28;51521;-59
2022/11/04 04:16:39;;;;;;;;;9.00;7.50;;;;;;;;5026168;28;51125;-54
2022/11/04 04:19:23;;;;;;;;;7.50;6.25;;;;;;;;5034737;28;51050;-57
2022/11/04 04:22:19;;;;;;;;;6.50;4.25;;;;;;;;5031500;28;51390;-57
2022/11/04 04:28:11;;;;;;;;;11.25;6.00;;;;;;;;5035678;28;51305;-56
2022/11/04 04:30:55;;;;;;;;;6.25;4.75;;;;;;;;5034935;28;51025;-56
2022/11/04 04:33:40;;;;;;;;;4.75;4.75;;;;;;;;5034632;28;51179;-56
2022/11/04 04:36:25;;;;;;;;;7.00;5.75;;;;;;;;5032512;28;51405;-57
2022/11/04 04:45:22;;;;;;;;;6.00;5.75;;;;;;;;5029022;28;51672;-58
2022/11/04 04:48:07;;;;;;;;;9.00;5.50;;;;;;;;5032332;28;51248;-58
2022/11/04 04:50:55;;;;;;;;;7.25;7.25;;;;;;;;5040778;28;51136;-56
2022/11/04 04:53:40;;;;;;;;;9.50;5.00;;;;;;;;5039443;28;51458;-59
2022/11/04 04:56:24;;;;;;;;;5.00;5.00;;;;;;;;5034560;28;51248;-56
2022/11/04 04:59:09;;;;;;;;;7.25;6.75;;;;;;;;5041423;28;51117;-56
2022/11/04 05:01:53;;;;;;;;;10.50;6.75;;;;;;;;5039296;28;51209;-55
2022/11/04 05:04:38;;;;;;;;;8.50;6.00;;;;;;;;5039786;28;51484;-57
2022/11/04 05:07:22;;;;;;;;;9.25;7.00;;;;;;;;5036473;28;51063;-58
2022/11/04 05:10:08;;;;;;;;;8.75;6.75;;;;;;;;5036449;28;51153;-56
2022/11/04 05:16:08;;;;;;;;;9.50;5.00;;;;;;;;5036036;28;51146;-54
2022/11/04 05:18:52;;;;;;;;;10.50;6.00;;;;;;;;5038350;28;51377;-58
2022/11/04 05:21:37;;;;;;;;;9.00;5.50;;;;;;;;5034954;28;51205;-52
2022/11/04 05:24:21;;;;;;;;;11.25;7.00;;;;;;;;5038198;28;51580;-54
2022/11/04 05:27:06;;;;;;;;;11.00;7.75;;;;;;;;5039199;28;51880;-55
2022/11/04 05:29:50;;;;;;;;;7.00;6.25;;;;;;;;5036838;28;51257;-54
2022/11/04 05:32:35;;;;;;;;;12.50;8.25;;;;;;;;5038422;28;51146;-54
2022/11/04 05:35:19;;;;;;;;;11.00;8.75;;;;;;;;5034970;28;51070;-57
2022/11/04 05:38:03;;;;;;;;;12.50;7.25;;;;;;;;5034503;28;51097;-56
2022/11/04 05:40:48;;;;;;;;;9.25;6.75;;;;;;;;5040192;28;51187;-55
2022/11/04 05:43:33;;;;;;;;;11.50;7.50;;;;;;;;5039245;28;51067;-53
2022/11/04 05:46:17;;;;;;;;;12.50;7.00;;;;;;;;5039029;28;51107;-55
2022/11/04 05:49:01;;;;;;;;;15.50;11.00;;;;;;;;5029157;28;51004;-57
2022/11/04 05:51:46;;;;;;;;;10.00;8.75;;;;;;;;5037431;28;51105;-57
2022/11/04 05:54:30;;;;;;;;;8.75;7.25;;;;;;;;5037760;28;51436;-54
2022/11/04 05:57:14;;;;;;;;;12.00;7.50;;;;;;;;5037399;28;51203;-57
2022/11/04 05:59:59;;;;;;;;;15.00;10.50;;;;;;;;5033242;28;51179;-58
2022/11/04 06:02:43;;;;;;;;;12.00;10.75;;;;;;;;5036283;28;51419;-54
2022/11/04 06:05:28;;;;;;;;;14.50;9.25;;;;;;;;5031479;28;51053;-55
2022/11/04 06:08:12;;;;;;;;;14.00;8.00;;;;;;;;5038120;28;51469;-56
2022/11/04 06:10:57;;;;;;;;;10.25;8.00;;;;;;;;5028970;28;51051;-55
2022/11/04 06:13:41;;;;;;;;;13.00;8.25;;;;;;;;5032340;28;51152;-54
2022/11/04 06:16:26;;;;;;;;;13.75;8.25;;;;;;;;5031637;28;51145;-60
2022/11/04 06:19:10;;;;;;;;;16.75;11.00;;;;;;;;5033065;28;51177;-55
2022/11/04 06:21:55;;;;;;;;;12.75;11.50;;;;;;;;5038012;28;52043;-55
2022/11/04 06:24:40;;;;;;;;;13.50;10.25;;;;;;;;5037018;28;51156;-57
2022/11/04 06:27:24;;;;;;;;;13.25;10.75;;;;;;;;5032145;28;51565;-47
2022/11/04 06:30:09;;;;;;;;;14.00;12.25;;;;;;;;5035483;28;51185;-47
2022/11/04 06:32:53;;;;;;;;;9.00;8.00;;;;;;;;5032708;28;51055;-50
2022/11/04 06:35:38;;;;;;;;;15.00;11.25;;;;;;;;5029650;28;51150;-50
2022/11/04 06:38:22;;;;;;;;;11.50;9.50;;;;;;;;5033287;28;51069;-50
2022/11/04 06:41:08;;;;;;;;;8.25;5.00;;;;;;;;5034284;28;51790;-49
2022/11/04 06:43:52;;;;;;;;;7.25;5.75;;;;;;;;5034431;28;51345;-51
2022/11/04 06:46:38;;;;;;;;;11.25;6.50;;;;;;;;5035748;28;51149;-51
2022/11/04 06:49:22;;;;;;;;;32.00;28.50;;;;;;;;5037114;28;51256;-52
2022/11/04 06:52:06;;;;;;;;;56.50;44.00;;;;;;;;5032836;28;51144;-52
2022/11/04 06:54:51;;;;;;;;;52.75;41.00;;;;;;;;5038286;28;51050;-50
2022/11/04 06:57:35;;;;;;;;;52.00;41.50;;;;;;;;5039264;28;52374;-52
2022/11/04 07:00:20;;;;;;;;;49.75;39.75;;;;;;;;5036968;28;51411;-50
2022/11/04 07:03:05;;;;;;;;;46.25;39.50;;;;;;;;5039358;28;51482;-50
2022/11/04 07:05:49;;;;;;;;;50.00;38.50;;;;;;;;5038941;28;51147;-50
2022/11/04 07:08:33;;;;;;;;;45.50;37.25;;;;;;;;5036139;28;51665;-50
2022/11/04 07:11:19;;;;;;;;;54.00;41.50;;;;;;;;5036992;28;51106;-48
2022/11/04 07:14:03;;;;;;;;;56.25;44.25;;;;;;;;5034686;28;51144;-48
2022/11/04 07:16:49;;;;;;;;;54.25;43.00;;;;;;;;5037161;28;51083;-51
2022/11/04 07:19:33;;;;;;;;;56.75;44.75;;;;;;;;5039271;28;51396;-50
2022/11/04 07:22:17;;;;;;;;;52.50;41.25;;;;;;;;5033523;28;51963;-51
2022/11/04 07:25:01;;;;;;;;;57.75;44.00;;;;;;;;5032571;28;51449;-50
2022/11/04 07:27:45;;;;;;;;;47.00;39.75;;;;;;;;5038677;28;51148;-48
2022/11/04 07:30:30;;;;;;;;;49.75;40.00;;;;;;;;5035321;28;51772;-50
2022/11/04 07:33:14;;;;;;;;;45.00;36.00;;;;;;;;5036014;28;51387;-47
2022/11/04 07:36:06;;;;;;;;;50.25;38.25;;;;;;;;5036755;28;51185;-48
2022/11/04 07:38:50;;;;;;;;;39.50;34.50;;;;;;;;5037151;28;51118;-49
2022/11/04 07:41:35;;;;;;;;;42.75;32.50;;;;;;;;5035140;28;51278;-50
2022/11/04 07:44:21;;;;;;;;;41.75;33.75;;;;;;;;5037989;28;51508;-52
2022/11/04 07:47:06;;;;;;;;;49.00;40.00;;;;;;;;5038120;28;51593;-51
2022/11/04 07:49:50;;;;;;;;;48.00;38.25;;;;;;;;5035597;28;51888;-50
2022/11/04 07:52:35;;;;;;;;;53.25;43.00;;;;;;;;5038692;28;51037;-50
2022/11/04 07:55:20;;;;;;;;;56.75;44.25;;;;;;;;5037386;28;51603;-49
2022/11/04 07:58:04;;;;;;;;;49.75;41.25;;;;;;;;5038256;28;51950;-51
2022/11/04 08:00:49;;;;;;;;;50.75;39.50;;;;;;;;5038155;28;51145;-48
2022/11/04 08:03:33;;;;;;;;;46.25;36.75;;;;;;;;5034675;28;51235;-47
2022/11/04 08:06:18;;;;;;;;;44.75;37.50;;;;;;;;5038174;28;51149;-49
2022/11/04 08:09:02;;;;;;;;;44.00;36.25;;;;;;;;5038282;28;51173;-50
2022/11/04 08:11:46;;;;;;;;;49.25;38.75;;;;;;;;5039706;28;51642;-52
2022/11/04 08:14:31;;;;;;;;;48.75;37.75;;;;;;;;5034766;28;51124;-51
2022/11/04 08:17:16;;;;;;;;;46.75;37.75;;;;;;;;5031097;28;52603;-52
2022/11/04 08:20:00;;;;;;;;;45.00;34.75;;;;;;;;5029435;28;51157;-48
2022/11/04 08:22:44;;;;;;;;;45.25;35.00;;;;;;;;5032567;28;51102;-48
2022/11/04 08:25:28;;;;;;;;;44.25;35.75;;;;;;;;5038089;28;51050;-48
2022/11/04 08:28:16;;;;;;;;;48.75;40.00;;;;;;;;5042048;28;51142;-52
2022/11/04 08:31:02;;;;;;;;;51.75;42.25;;;;;;;;5040571;28;51203;-54
2022/11/04 08:33:46;;;;;;;;;54.25;42.50;;;;;;;;5036086;28;51105;-50
2022/11/04 08:36:33;;;;;;;;;42.25;31.75;;;;;;;;5038699;28;51482;-53
2022/11/04 08:39:17;;;;;;;;;31.75;23.50;;;;;;;;5038284;28;51144;-51
2022/11/04 08:42:02;;;;;;;;;16.00;14.25;;;;;;;;5041483;28;51171;-50
2022/11/04 08:44:49;;;;;;;;;12.25;11.25;;;;;;;;5043440;28;51377;-51
2022/11/04 08:47:34;;;;;;;;;16.25;14.50;;;;;;;;5041965;28;51041;-50
2022/11/04 08:50:18;;;;;;;;;24.50;18.25;;;;;;;;5041907;28;51241;-49
2022/11/04 08:53:03;;;;;;;;;24.75;19.75;;;;;;;;5040859;28;51283;-52
2022/11/04 08:55:49;;;;;;;;;24.00;20.50;;;;;;;;5040911;28;51437;-53
2022/11/04 08:58:33;;;;;;;;;14.25;13.25;;;;;;;;5038061;28;51038;-53
2022/11/04 09:01:19;;;;;;;;;16.75;13.25;;;;;;;;5036192;28;51410;-50
2022/11/04 09:04:04;;;;;;;;;10.50;8.00;;;;;;;;5037394;28;51208;-50
2022/11/04 09:06:49;;;;;;;;;13.75;7.00;;;;;;;;5035065;28;51207;-51
2022/11/04 09:09:33;;;;;;;;;10.25;7.25;;;;;;;;5040488;28;51232;-52
2022/11/04 09:12:18;;;;;;;;;11.50;6.50;;;;;;;;5039279;28;51193;-51
2022/11/04 09:15:04;;;;;;;;;10.00;9.00;;;;;;;;5041288;28;51101;-50
2022/11/04 09:17:48;;;;;;;;;9.00;4.50;;;;;;;;5041475;28;51144;-51
2022/11/04 09:20:33;;;;;;;;;15.00;12.25;;;;;;;;5036686;28;51365;-51
2022/11/04 09:23:18;;;;;;;;;15.25;11.75;;;;;;;;5032090;28;51245;-53
2022/11/04 09:26:12;;;;;;;;;10.50;8.25;;;;;;;;5038539;28;51177;-52
2022/11/04 09:28:57;;;;;;;;;9.50;7.00;;;;;;;;5040811;28;51472;-52
2022/11/04 09:31:42;;;;;;;;;8.75;8.25;;;;;;;;5041210;28;51323;-52
2022/11/04 09:34:26;;;;;;;;;12.50;9.00;;;;;;;;5039015;28;51126;-50
2022/11/04 09:37:14;;;;;;;;;11.50;6.00;;;;;;;;5041379;28;51184;-51
2022/11/04 09:39:59;;;;;;;;;14.25;10.50;;;;;;;;5032842;28;51103;-51
2022/11/04 09:42:59;;;;;;;;;14.25;9.50;;;;;;;;5037701;28;51607;-51
2022/11/04 09:45:43;;;;;;;;;10.25;10.25;;;;;;;;5038729;28;51248;-51
2022/11/04 09:48:33;;;;;;;;;13.75;10.50;;;;;;;;5040366;28;51254;-50
2022/11/04 09:51:19;;;;;;;;;12.50;10.25;;;;;;;;5036851;28;51332;-51
2022/11/04 09:54:08;;;;;;;;;12.00;7.75;;;;;;;;5040213;28;51251;-51
2022/11/04 09:56:54;;;;;;;;;12.75;10.00;;;;;;;;5040107;28;51181;-51
2022/11/04 09:59:38;;;;;;;;;15.00;11.25;;;;;;;;5040132;28;51102;-52
2022/11/04 10:02:26;;;;;;;;;16.50;10.25;;;;;;;;5039482;28;51407;-50
2022/11/04 10:05:13;;;;;;;;;10.00;6.00;;;;;;;;5039424;28;51283;-50
2022/11/04 10:08:22;;;;;;;;;10.50;5.50;;;;;;;;5038498;28;51070;-50
2022/11/04 10:11:31;;;;;;;;;6.75;5.50;;;;;;;;5039852;28;51301;-50
2022/11/04 10:14:24;;;;;;;;;6.50;5.25;;;;;;;;5036687;28;51293;-53
2022/11/04 10:17:26;;;;;;;;;6.25;5.00;;;;;;;;5038878;28;51683;-52
2022/11/04 10:20:14;;;;;;;;;7.25;6.50;;;;;;;;5036469;28;51413;-53
2022/11/04 10:23:06;;;;;;;;;10.25;6.25;;;;;;;;5039181;28;51711;-52
2022/11/04 10:25:53;;;;;;;;;16.75;13.50;;;;;;;;5039182;28;51112;-52
2022/11/04 10:28:42;;;;;;;;;15.25;11.75;;;;;;;;5039330;28;51374;-50
2022/11/04 10:31:27;;;;;;;;;12.00;11.25;;;;;;;;5035031;28;51254;-50
2022/11/04 10:34:18;;;;;;;;;16.00;12.50;;;;;;;;5038342;28;51066;-52
2022/11/04 10:37:03;;;;;;;;;18.50;15.50;;;;;;;;5035534;28;51118;-51
2022/11/04 10:39:47;;;;;;;;;20.00;15.75;;;;;;;;5033009;28;51133;-51
2022/11/04 10:42:32;;;;;;;;;25.75;19.00;;;;;;;;5038209;28;51106;-50
2022/11/04 10:45:18;;;;;;;;;23.75;14.75;;;;;;;;5039638;28;51426;-51
2022/11/04 10:48:05;;;;;;;;;18.50;14.00;;;;;;;;5038707;28;51221;-49
2022/11/04 10:50:52;;;;;;;;;8.00;7.25;;;;;;;;5038732;28;51121;-52
2022/11/04 10:53:36;;;;;;;;;6.75;5.75;;;;;;;;5034407;28;51192;-53
2022/11/04 10:56:27;;;;;;;;;9.00;7.25;;;;;;;;5037317;28;51097;-51
2022/11/04 10:59:23;;;;;;;;;10.25;5.25;;;;;;;;5034624;28;51137;-53
2022/11/04 11:02:08;;;;;;;;;10.00;7.75;;;;;;;;5032911;28;51670;-50
2022/11/04 11:05:11;;;;;;;;;10.75;7.00;;;;;;;;5037993;28;51084;-55
2022/11/04 11:07:56;;;;;;;;;10.25;6.50;;;;;;;;5038532;28;51079;-51
2022/11/04 11:10:49;;;;;;;;;6.25;5.25;;;;;;;;5035430;28;51143;-52
2022/11/04 11:13:35;;;;;;;;;8.50;7.00;;;;;;;;5034971;28;51104;-50
2022/11/04 11:16:24;;;;;;;;;10.75;5.25;;;;;;;;5039604;28;51026;-51
2022/11/04 11:19:09;;;;;;;;;8.75;5.75;;;;;;;;5039142;28;50994;-52
2022/11/04 11:21:54;;;;;;;;;5.25;4.50;;;;;;;;5034285;28;51524;-56
2022/11/04 11:24:38;;;;;;;;;8.00;6.00;;;;;;;;5035341;28;51064;-54
2022/11/04 11:27:23;;;;;;;;;13.25;7.50;;;;;;;;5037584;28;51405;-52
2022/11/04 11:30:18;;;;;;;;;9.25;7.00;;;;;;;;5037590;28;51546;-50
2022/11/04 11:33:07;;;;;;;;;8.75;8.25;;;;;;;;5035393;28;51378;-52
2022/11/04 11:35:59;;;;;;;;;10.75;6.75;;;;;;;;5035108;28;50964;-49
2022/11/04 11:38:56;;;;;;;;;7.75;6.50;;;;;;;;5035669;28;51418;-51
2022/11/04 11:41:49;;;;;;;;;11.25;7.25;;;;;;;;5037668;28;51027;-51
2022/11/04 11:44:37;;;;;;;;;7.50;4.50;;;;;;;;5039446;28;51133;-52
2022/11/04 11:47:25;;;;;;;;;10.50;6.25;;;;;;;;5038112;28;51101;-48
2022/11/04 11:50:12;;;;;;;;;6.25;5.00;;;;;;;;5036508;28;51398;-46
2022/11/04 11:53:11;;;;;;;;;8.50;5.25;;;;;;;;5036116;28;51211;-48
2022/11/04 11:56:22;;;;;;;;;8.00;5.25;;;;;;;;5038280;28;51152;-48
2022/11/04 11:59:17;;;;;;;;;11.25;8.00;;;;;;;;5041156;28;51315;-47
2022/11/04 12:02:26;;;;;;;;;7.00;5.50;;;;;;;;5042626;28;51168;-50
2022/11/04 12:05:11;;;;;;;;;13.25;8.00;;;;;;;;5041206;28;51424;-49
2022/11/04 12:08:21;;;;;;;;;13.50;8.75;;;;;;;;5041876;28;51359;-51
2022/11/04 12:11:08;;;;;;;;;7.00;4.00;;;;;;;;5038111;28;51366;-49
2022/11/04 12:13:54;;;;;;;;;11.50;6.75;;;;;;;;5042551;28;51644;-51
2022/11/04 12:16:56;;;;;;;;;5.75;5.75;;;;;;;;5041511;28;51179;-49
2022/11/04 12:19:46;;;;;;;;;5.50;4.25;;;;;;;;5040677;28;51558;-46
2022/11/04 12:22:45;;;;;;;;;13.75;12.00;;;;;;;;5042177;28;51126;-44
2022/11/04 12:25:39;;;;;;;;;12.25;9.75;;;;;;;;5041419;28;51297;-51
2022/11/04 12:28:31;;;;;;;;;11.25;8.25;;;;;;;;5037954;28;51119;-51
2022/11/04 12:31:28;;;;;;;;;10.50;8.75;;;;;;;;5039462;28;51149;-49
2022/11/04 12:34:39;;;;;;;;;11.50;7.00;;;;;;;;5041327;28;51147;-51
2022/11/04 12:37:26;;;;;;;;;9.25;5.75;;;;;;;;5036219;28;51173;-47
2022/11/04 12:40:14;;;;;;;;;12.50;7.25;;;;;;;;5039249;28;51113;-50
2022/11/04 12:43:07;;;;;;;;;9.00;6.00;;;;;;;;5035688;28;51145;-49
2022/11/04 12:45:58;;;;;;;;;9.75;6.75;;;;;;;;5038038;28;51057;-51
2022/11/04 12:49:01;;;;;;;;;11.00;8.25;;;;;;;;5036194;28;51195;-53
2022/11/04 12:52:04;;;;;;;;;7.75;5.25;;;;;;;;5037727;28;51034;-52
2022/11/04 12:55:04;;;;;;;;;10.50;7.00;;;;;;;;5036923;28;51458;-53
2022/11/04 12:57:55;;;;;;;;;7.75;4.25;;;;;;;;5041452;28;51509;-49
2022/11/04 13:00:40;;;;;;;;;8.00;7.25;;;;;;;;5037489;28;51536;-50
2022/11/04 13:03:29;;;;;;;;;5.00;5.00;;;;;;;;5041953;28;51416;-52
2022/11/04 13:06:33;;;;;;;;;9.50;6.75;;;;;;;;5040152;28;51116;-47
2022/11/04 13:09:24;;;;;;;;;9.00;6.25;;;;;;;;5038815;28;51224;-51
2022/11/04 13:12:11;;;;;;;;;8.25;7.25;;;;;;;;5040005;28;51440;-49
2022/11/04 13:15:11;;;;;;;;;12.50;8.00;;;;;;;;5037804;28;51101;-50
2022/11/04 13:18:02;;;;;;;;;7.25;5.50;;;;;;;;5038678;28;51201;-55
2022/11/04 13:20:53;;;;;;;;;10.75;6.25;;;;;;;;5040072;28;51143;-50
2022/11/04 13:23:47;;;;;;;;;11.50;6.00;;;;;;;;5040047;28;51408;-53
2022/11/04 13:26:32;;;;;;;;;8.75;7.25;;;;;;;;5041615;28;51194;-49
2022/11/04 13:29:20;;;;;;;;;12.50;6.50;;;;;;;;5038066;28;51401;-53
2022/11/04 13:32:09;;;;;;;;;9.50;6.25;;;;;;;;5041525;28;51442;-52
2022/11/04 13:34:58;;;;;;;;;9.25;5.50;;;;;;;;5039416;28;51101;-51
2022/11/04 13:37:51;;;;;;;;;11.50;7.00;;;;;;;;5039948;28;51457;-50
2022/11/04 13:40:55;;;;;;;;;8.75;5.25;;;;;;;;5037087;28;51196;-53
2022/11/04 13:43:44;;;;;;;;;5.50;1.75;;;;;;;;5041293;28;51051;-50
2022/11/04 13:46:31;;;;;;;;;9.00;6.75;;;;;;;;5041391;28;51176;-49
2022/11/04 13:49:36;;;;;;;;;9.25;4.75;;;;;;;;5039653;28;51118;-51
2022/11/04 13:52:21;;;;;;;;;9.00;6.50;;;;;;;;5039492;28;51170;-52
2022/11/04 13:55:16;;;;;;;;;6.50;6.50;;;;;;;;5039748;28;51314;-54
2022/11/04 13:58:02;;;;;;;;;15.25;8.00;;;;;;;;5040668;28;51061;-47
2022/11/04 14:01:06;;;;;;;;;11.25;5.75;;;;;;;;5040347;28;51185;-51
2022/11/04 14:03:52;;;;;;;;;9.00;6.00;;;;;;;;5038396;28;51136;-51
2022/11/04 14:06:55;;;;;;;;;8.75;6.00;;;;;;;;5037568;28;51195;-53
2022/11/04 14:09:43;;;;;;;;;6.25;5.00;;;;;;;;5036447;28;51469;-47
2022/11/04 14:12:29;;;;;;;;;7.00;5.75;;;;;;;;5040493;28;51097;-52
2022/11/04 14:15:15;;;;;;;;;9.75;7.75;;;;;;;;5039414;28;51236;-50
2022/11/04 14:17:59;;;;;;;;;8.00;6.75;;;;;;;;5039338;28;51619;-52
2022/11/04 14:21:00;;;;;;;;;5.75;4.50;;;;;;;;5037858;28;51353;-52
2022/11/04 14:23:46;;;;;;;;;8.25;6.25;;;;;;;;5037736;28;51402;-53
2022/11/04 14:26:41;;;;;;;;;8.50;6.75;;;;;;;;5040427;28;51085;-49
2022/11/04 14:29:26;;;;;;;;;12.75;8.75;;;;;;;;5040200;28;51160;-52
2022/11/04 14:32:11;;;;;;;;;7.25;6.50;;;;;;;;5039961;28;51059;-52
2022/11/04 14:35:00;;;;;;;;;13.75;8.00;;;;;;;;5039691;28;51053;-51
2022/11/04 14:37:51;;;;;;;;;8.75;8.75;;;;;;;;5040464;28;51027;-52
2022/11/04 14:40:47;;;;;;;;;10.50;7.75;;;;;;;;5039437;28;51143;-55
2022/11/04 14:43:34;;;;;;;;;14.50;9.00;;;;;;;;5041495;28;51103;-49
2022/11/04 14:46:22;;;;;;;;;8.50;6.75;;;;;;;;5039824;28;51293;-51
2022/11/04 14:49:23;;;;;;;;;8.25;8.00;;;;;;;;5039517;28;51404;-49
2022/11/04 14:52:20;;;;;;;;;10.00;6.25;;;;;;;;5040099;28;51012;-50
2022/11/04 14:55:04;;;;;;;;;10.25;6.00;;;;;;;;5036026;28;51432;-49
2022/11/04 14:57:50;;;;;;;;;8.50;6.75;;;;;;;;5039664;28;52112;-51
2022/11/04 15:00:38;;;;;;;;;10.50;8.00;;;;;;;;5033730;28;51236;-53
2022/11/04 15:03:24;;;;;;;;;9.00;8.00;;;;;;;;5038920;28;51886;-52
2022/11/04 15:06:10;;;;;;;;;10.00;7.25;;;;;;;;5037288;28;51471;-52
2022/11/04 15:08:55;;;;;;;;;12.75;8.50;;;;;;;;5037527;28;51107;-49
2022/11/04 15:14:42;;;;;;;;;13.25;8.50;;;;;;;;5038808;28;51361;-53
2022/11/04 15:17:31;;;;;;;;;15.75;10.00;;;;;;;;5038639;28;51073;-52
2022/11/04 15:20:23;;;;;;;;;13.75;11.00;;;;;;;;5037838;28;51058;-49
2022/11/04 15:23:12;;;;;;;;;14.25;9.25;;;;;;;;5038123;28;51150;-56
2022/11/04 15:25:57;;;;;;;;;16.00;14.75;;;;;;;;5037526;28;51075;-52
2022/11/04 15:28:45;;;;;;;;;13.75;12.50;;;;;;;;5039333;28;51316;-51
2022/11/04 15:31:31;;;;;;;;;16.00;13.25;;;;;;;;5038943;28;51442;-51
2022/11/04 15:34:16;;;;;;;;;16.00;10.00;;;;;;;;5034752;28;51245;-49
2022/11/04 15:37:03;;;;;;;;;12.25;7.25;;;;;;;;5038433;28;51323;-50
2022/11/04 15:39:48;;;;;;;;;16.00;13.25;;;;;;;;5035652;28;51055;-51
2022/11/04 15:42:35;;;;;;;;;14.25;11.75;;;;;;;;5036282;28;51230;-51
2022/11/04 15:45:49;;;;;;;;;15.00;11.50;;;;;;;;5039164;28;51081;-48
2022/11/04 15:48:37;;;;;;;;;12.00;8.50;;;;;;;;5037296;28;51117;-50
2022/11/04 15:51:29;;;;;;;;;10.75;8.00;;;;;;;;5039079;28;51304;-53
2022/11/04 15:54:19;;;;;;;;;8.75;8.00;;;;;;;;5036434;28;50995;-50
2022/11/04 15:57:11;;;;;;;;;19.25;10.00;;;;;;;;5036582;28;51094;-50
2022/11/04 16:00:05;;;;;;;;;12.25;9.25;;;;;;;;5039081;28;51033;-49
2022/11/04 16:02:56;;;;;;;;;16.00;9.75;;;;;;;;5038282;28;51806;-53
2022/11/04 16:05:41;;;;;;;;;17.25;11.25;;;;;;;;5034835;28;51106;-54
2022/11/04 16:08:29;;;;;;;;;15.25;12.00;;;;;;;;5038859;28;51061;-51
2022/11/04 16:11:15;;;;;;;;;13.50;9.25;;;;;;;;5034280;28;51323;-50
2022/11/04 16:14:18;;;;;;;;;16.50;12.50;;;;;;;;5038872;28;51119;-51
2022/11/04 16:17:02;;;;;;;;;14.75;12.75;;;;;;;;5038069;28;51193;-53
2022/11/04 16:19:48;;;;;;;;;12.75;12.00;;;;;;;;5038026;28;51051;-48
2022/11/04 16:22:39;;;;;;;;;15.50;9.25;;;;;;;;5037523;28;51077;-51
2022/11/04 16:25:25;;;;;;;;;20.25;16.50;;;;;;;;5041083;28;51055;-51
2022/11/04 16:28:17;;;;;;;;;15.25;10.75;;;;;;;;5039309;28;51068;-49
2022/11/04 16:31:05;;;;;;;;;12.25;9.25;;;;;;;;5039617;28;51063;-52
2022/11/04 16:33:50;;;;;;;;;15.25;10.50;;;;;;;;5037945;28;51201;-49
2022/11/04 16:36:34;;;;;;;;;13.50;10.00;;;;;;;;5038199;28;51586;-50
2022/11/04 16:39:18;;;;;;;;;13.75;10.00;;;;;;;;5039376;28;51800;-50
2022/11/04 16:42:03;;;;;;;;;13.00;11.25;;;;;;;;5036609;28;51180;-53
2022/11/04 16:44:49;;;;;;;;;11.25;9.00;;;;;;;;5039578;28;51153;-54
2022/11/04 16:47:35;;;;;;;;;12.00;9.50;;;;;;;;5041831;28;51130;-49
2022/11/04 16:50:20;;;;;;;;;7.50;5.50;;;;;;;;5042489;28;51047;-51
2022/11/04 16:53:05;;;;;;;;;13.00;9.50;;;;;;;;5039512;28;51291;-49
2022/11/04 16:55:51;;;;;;;;;13.50;11.50;;;;;;;;5040466;28;51054;-52
2022/11/04 16:58:35;;;;;;;;;19.50;15.00;;;;;;;;5042422;28;51559;-53
2022/11/04 17:01:20;;;;;;;;;34.75;27.75;;;;;;;;5041171;28;51424;-48
2022/11/04 17:04:05;;;;;;;;;15.25;12.50;;;;;;;;5041250;28;51377;-52
2022/11/04 17:06:50;;;;;;;;;9.00;8.25;;;;;;;;5041430;28;51112;-51
2022/11/04 17:09:34;;;;;;;;;19.00;14.75;;;;;;;;5038909;28;51176;-53